Terminal Aerodrome Forecast
Issued by NWS Twin Cities, MN

Home | Current Version | Previous Version | Graphics & Text | Print | Product List | Glossary On
Versions: 1 2 3 4 5 6 7 8 9 10 11 12 13 14 15 16 17 18 19 20 21 22 23 24 25
000
FTUS43 KMPX 222034 AAA
TAFMSP
TAF AMD
KMSP 222034Z 2221/2324 02020G27KT 1/4SM +SN BLSN VV004
     FM230000 36018G26KT 1SM -SN BR OVC010
     FM230400 35016G24KT 6SM -SN BLSN OVC015
     FM230600 35013KT P6SM OVC020
     FM231500 32009KT P6SM BKN030=

USA.gov is the U.S. government's official web portal to all federal, state and local government web resources and services.